Time;durP1;ratioP1;P1;durP2;ratioP2;P2;SDS_P1;SDS_P2;PMS_P1;PMS_P2;Temp;Humidity;BMP_temperature;BMP_pressure;BME280_temperature;BME280_humidity;BME280_pressure;Samples;Min_cycle;Max_cycle;Signal;HPM_P1;HPM_P2
2022/08/28 05:02:14;;;;;;;27.40;17.13;;;19.10;99.90;;;;;;5552818;23;20067;-75
2022/08/28 05:04:40;;;;;;;22.70;16.65;;;19.10;99.90;;;;;;4945563;29;20293;-73
2022/08/28 05:07:05;;;;;;;21.67;17.13;;;19.10;99.90;;;;;;4945662;29;20068;-75
2022/08/28 05:09:33;;;;;;;23.27;17.80;;;19.10;99.90;;;;;;4945325;29;20031;-73
2022/08/28 05:12:15;;;;;;;23.70;17.52;;;19.10;99.90;;;;;;4929137;29;20042;-75
2022/08/28 05:15:13;;;;;;;24.77;18.73;;;19.10;99.90;;;;;;4945048;29;20363;-75
2022/08/28 05:17:42;;;;;;;25.48;18.33;;;19.20;99.90;;;;;;4947718;29;20031;-76
2022/08/28 05:20:08;;;;;;;26.00;18.80;;;19.20;99.90;;;;;;4968599;29;20023;-75
2022/08/28 05:22:33;;;;;;;23.33;17.90;;;19.20;99.90;;;;;;4967042;29;20057;-74
2022/08/28 05:25:05;;;;;;;23.02;18.40;;;19.20;99.90;;;;;;4965624;29;20039;-74
2022/08/28 05:27:31;;;;;;;26.50;17.80;;;19.30;99.90;;;;;;4947598;29;20405;-74
2022/08/28 05:29:56;;;;;;;20.88;14.68;;;19.30;99.90;;;;;;4964281;29;20031;-75
2022/08/28 05:32:48;;;;;;;23.00;16.98;;;19.30;99.90;;;;;;4964484;29;20313;-76
2022/08/28 05:35:14;;;;;;;25.85;18.02;;;19.30;99.90;;;;;;4945573;29;20213;-75
2022/08/28 05:37:41;;;;;;;23.27;16.98;;;19.40;99.90;;;;;;4963818;29;20035;-75
2022/08/28 05:40:33;;;;;;;23.38;17.83;;;19.40;99.90;;;;;;4963630;28;20035;-75
2022/08/28 05:42:59;;;;;;;22.17;16.58;;;19.40;99.90;;;;;;4954295;29;20129;-75
2022/08/28 05:45:58;;;;;;;24.45;17.67;;;19.40;99.90;;;;;;4963721;29;20038;-74
2022/08/28 05:48:30;;;;;;;21.85;16.10;;;19.40;99.90;;;;;;4964402;29;20043;-75
2022/08/28 05:51:11;;;;;;;22.80;16.20;;;19.50;99.90;;;;;;4945398;29;20061;-75
2022/08/28 05:53:44;;;;;;;25.58;16.10;;;19.50;99.90;;;;;;4964061;29;20019;-75
2022/08/28 05:56:31;;;;;;;24.02;15.00;;;19.50;99.90;;;;;;4964040;29;20035;-75
2022/08/28 05:59:10;;;;;;;22.48;15.38;;;19.60;99.90;;;;;;4964458;29;20102;-76
2022/08/28 06:01:39;;;;;;;20.55;15.55;;;19.60;99.90;;;;;;4963124;28;20043;-76
2022/08/28 06:04:17;;;;;;;22.98;15.52;;;19.70;99.90;;;;;;4946507;28;20035;-75
2022/08/28 06:06:49;;;;;;;18.83;15.25;;;19.70;99.90;;;;;;4961595;29;20050;-75
2022/08/28 06:09:22;;;;;;;20.55;15.73;;;19.80;99.90;;;;;;4946696;29;20317;-75
2022/08/28 06:11:48;;;;;;;19.63;15.23;;;19.80;99.90;;;;;;4963409;29;20313;-75
2022/08/28 06:14:19;;;;;;;19.58;14.90;;;19.90;99.90;;;;;;4964300;29;20124;-75
2022/08/28 06:16:48;;;;;;;20.95;14.93;;;20.00;99.90;;;;;;4954570;29;20205;-75
2022/08/28 06:22:13;;;;;;;;;;;20.00;99.90;;;;;;4948488;29;20085;-75
2022/08/28 06:24:48;;;;;;;18.95;13.68;;;20.10;99.90;;;;;;4963139;28;19929;-75
2022/08/28 06:27:14;;;;;;;18.40;13.60;;;20.10;99.90;;;;;;4947773;29;20305;-76
2022/08/28 06:29:40;;;;;;;16.55;12.75;;;20.20;99.90;;;;;;4944129;29;20039;-75
2022/08/28 06:32:12;;;;;;;21.10;14.43;;;20.20;99.90;;;;;;4945052;29;20039;-75
2022/08/28 06:34:43;;;;;;;14.70;12.05;;;20.20;99.90;;;;;;4951321;29;20099;-75
2022/08/28 06:37:09;;;;;;;;;;;20.30;99.90;;;;;;4964087;29;20042;-75
2022/08/28 06:39:38;;;;;;;16.60;12.15;;;20.40;99.90;;;;;;4963729;28;19907;-75
2022/08/28 06:42:30;;;;;;;15.30;10.75;;;20.50;99.90;;;;;;4962884;29;20111;-75
2022/08/28 06:47:41;;;;;;;18.45;12.48;;;20.90;99.90;;;;;;4957799;28;20041;-75
2022/08/28 06:50:25;;;;;;;15.27;12.25;;;21.00;99.90;;;;;;4963332;29;20027;-75
2022/08/28 06:52:51;;;;;;;17.75;10.88;;;21.00;99.90;;;;;;4966337;29;20031;-75
2022/08/28 06:55:20;;;;;;;17.88;11.18;;;21.00;99.90;;;;;;4966555;29;20252;-76
2022/08/28 06:58:04;;;;;;;15.70;11.10;;;21.10;99.90;;;;;;4966487;29;20325;-75
2022/08/28 07:01:21;;;;;;;13.90;10.38;;;21.10;99.90;;;;;;4966600;29;20339;-75
2022/08/28 07:03:51;;;;;;;15.55;10.05;;;21.20;99.90;;;;;;4924145;29;20039;-75
2022/08/28 07:06:21;;;;;;;12.07;9.70;;;21.30;99.90;;;;;;4926312;29;20039;-75
2022/08/28 07:12:12;;;;;;;13.02;9.70;;;21.50;99.90;;;;;;4898114;29;20088;-73
2022/08/28 07:14:38;;;;;;;12.50;9.02;;;21.60;99.90;;;;;;4907336;29;20076;-74
2022/08/28 07:17:06;;;;;;;15.38;9.98;;;21.60;99.90;;;;;;4922687;29;20031;-75
2022/08/28 07:19:32;;;;;;;11.75;9.52;;;21.60;99.90;;;;;;4925498;29;20043;-75
2022/08/28 07:21:58;;;;;;;15.77;9.70;;;21.70;99.90;;;;;;4897607;29;20132;-78
2022/08/28 07:24:30;;;;;;;12.75;8.98;;;21.80;99.90;;;;;;4911130;29;20100;-77
2022/08/28 07:26:56;;;;;;;13.07;9.25;;;21.90;99.90;;;;;;4926119;29;20289;-74
2022/08/28 07:29:22;;;;;;;11.90;9.10;;;21.90;99.90;;;;;;4926215;29;20088;-75
2022/08/28 07:31:56;;;;;;;14.82;10.20;;;21.80;99.90;;;;;;4926014;29;20039;-76
2022/08/28 07:34:39;;;;;;;14.85;9.50;;;21.90;99.90;;;;;;4907279;29;20061;-76
2022/08/28 07:37:08;;;;;;;12.02;9.63;;;22.00;99.90;;;;;;4907523;29;20036;-76
2022/08/28 07:39:34;;;;;;;12.00;8.73;;;22.00;99.90;;;;;;4928114;29;20111;-78
2022/08/28 07:42:02;;;;;;;15.07;9.77;;;21.90;99.90;;;;;;4947131;29;20067;-75
2022/08/28 07:47:47;;;;;;;15.25;10.32;;;21.70;99.90;;;;;;4946820;29;20102;-76
2022/08/28 07:50:14;;;;;;;13.45;9.60;;;21.70;99.90;;;;;;4929430;29;20090;-76
2022/08/28 07:52:48;;;;;;;13.25;9.63;;;21.70;99.90;;;;;;4946459;29;20340;-76
2022/08/28 07:55:15;;;;;;;12.75;9.70;;;21.80;99.90;;;;;;4945758;29;20051;-74
2022/08/28 07:57:59;;;;;;;14.25;9.00;;;21.80;99.90;;;;;;4945432;29;20105;-76
2022/08/28 08:01:01;;;;;;;14.23;9.07;;;21.90;99.90;;;;;;4929507;29;20095;-75
2022/08/28 08:03:35;;;;;;;12.00;9.07;;;22.00;99.90;;;;;;4940603;29;20043;-75
2022/08/28 08:06:09;;;;;;;12.13;9.07;;;22.20;99.90;;;;;;4949253;29;20051;-75
2022/08/28 08:08:57;;;;;;;11.90;8.95;;;22.40;99.90;;;;;;4951486;29;20313;-77
2022/08/28 08:11:23;;;;;;;11.38;9.25;;;22.60;99.90;;;;;;4965339;29;20046;-75
2022/08/28 08:13:50;;;;;;;12.50;9.70;;;22.80;99.90;;;;;;4965154;29;20051;-76
2022/08/28 08:16:38;;;;;;;16.98;9.27;;;23.00;99.90;;;;;;4965590;29;20031;-76
2022/08/28 08:19:12;;;;;;;;;;;23.10;99.90;;;;;;4965422;29;20090;-76
2022/08/28 08:22:04;;;;;;;13.63;9.18;;;23.30;99.90;;;;;;4948311;29;19952;-77
2022/08/28 08:24:54;;;;;;;11.63;9.38;;;23.20;99.90;;;;;;4950235;29;20094;-76
2022/08/28 08:27:20;;;;;;;14.60;9.27;;;23.20;99.90;;;;;;4948072;29;20324;-76
2022/08/28 08:29:47;;;;;;;17.70;9.90;;;23.30;99.90;;;;;;4946605;29;20100;-79
2022/08/28 08:32:14;;;;;;;13.63;9.55;;;23.20;99.90;;;;;;4913640;29;20340;-76
2022/08/28 08:34:46;;;;;;;14.73;9.77;;;23.20;99.90;;;;;;4945789;29;20058;-78
2022/08/28 08:37:12;;;;;;;11.10;8.90;;;23.20;99.90;;;;;;4926674;29;20035;-78
2022/08/28 08:39:43;;;;;;;13.70;9.18;;;23.10;99.90;;;;;;4929263;29;20083;-76
2022/08/28 08:42:25;;;;;;;10.90;8.45;;;23.20;99.90;;;;;;4913253;29;20031;-77
2022/08/28 08:44:54;;;;;;;11.43;8.65;;;23.50;99.90;;;;;;4945157;29;20246;-77
2022/08/28 08:47:38;;;;;;;12.57;8.90;;;23.70;99.90;;;;;;4913356;29;20023;-77
2022/08/28 08:50:34;;;;;;;15.25;9.57;;;23.80;99.90;;;;;;4922477;29;20091;-78
2022/08/28 08:53:27;;;;;;;12.05;8.65;;;24.00;99.90;;;;;;4956588;29;20081;-74
2022/08/28 08:55:54;;;;;;;11.70;8.50;;;24.10;99.90;;;;;;4962263;28;20023;-73
2022/08/28 08:58:37;;;;;;;13.37;8.10;;;24.50;99.90;;;;;;4961065;29;20031;-74
2022/08/28 09:01:24;;;;;;;11.57;7.57;;;24.70;99.90;;;;;;4946925;28;20452;-74
2022/08/28 09:04:02;;;;;;;10.50;7.30;;;24.80;99.90;;;;;;4963929;29;20051;-75
2022/08/28 09:06:40;;;;;;;10.38;7.63;;;25.00;99.90;;;;;;4964804;29;20031;-77
2022/08/28 09:09:16;;;;;;;11.05;7.97;;;25.20;99.90;;;;;;4945361;29;20035;-77
2022/08/28 09:11:48;;;;;;;9.75;7.20;;;25.40;99.90;;;;;;4929938;29;20035;-76
2022/08/28 09:14:51;;;;;;;11.35;7.90;;;25.60;99.90;;;;;;4930755;29;20307;-75
2022/08/28 09:17:20;;;;;;;11.25;7.57;;;25.60;99.20;;;;;;4942267;29;20026;-76
2022/08/28 09:19:46;;;;;;;11.27;5.93;;;25.60;99.40;;;;;;4944061;29;20032;-77
2022/08/28 09:22:12;;;;;;;11.13;7.03;;;26.00;99.30;;;;;;4927840;29;20332;-78
2022/08/28 09:24:40;;;;;;;9.27;6.65;;;25.80;98.40;;;;;;4931157;29;20026;-76
2022/08/28 09:27:27;;;;;;;10.13;7.30;;;25.70;98.30;;;;;;4962558;29;20328;-77
2022/08/28 09:30:04;;;;;;;8.87;6.33;;;25.60;98.20;;;;;;4962288;29;20054;-75
2022/08/28 09:32:33;;;;;;;10.80;7.20;;;25.70;98.40;;;;;;4963159;29;20069;-76
2022/08/28 09:35:05;;;;;;;13.55;7.07;;;25.90;97.50;;;;;;4962580;29;20098;-75
2022/08/28 09:37:32;;;;;;;8.90;6.40;;;26.00;97.50;;;;;;4961733;28;20031;-76
2022/08/28 09:40:24;;;;;;;10.27;7.05;;;26.10;97.30;;;;;;4930138;29;20121;-75
2022/08/28 09:45:56;;;;;;;10.52;7.80;;;25.60;97.50;;;;;;4945704;29;20032;-76
2022/08/28 09:48:34;;;;;;;10.07;6.70;;;25.70;97.50;;;;;;4963760;29;20028;-74
2022/08/28 09:51:10;;;;;;;10.33;7.07;;;26.20;96.80;;;;;;4962856;29;20352;-76
2022/08/28 09:54:00;;;;;;;10.45;6.80;;;26.30;96.10;;;;;;4963418;29;20431;-74
2022/08/28 09:56:35;;;;;;;8.55;6.00;;;26.40;96.00;;;;;;4953168;29;20043;-75
2022/08/28 09:59:17;;;;;;;10.15;6.15;;;26.60;95.70;;;;;;4958193;28;20039;-75
2022/08/28 10:01:50;;;;;;;8.05;6.00;;;26.50;95.60;;;;;;4963147;28;20054;-74
2022/08/28 10:04:53;;;;;;;10.25;6.55;;;26.20;95.80;;;;;;4962609;29;20082;-79
2022/08/28 10:07:21;;;;;;;8.02;5.90;;;26.20;95.20;;;;;;4933882;29;20044;-76
2022/08/28 10:10:11;;;;;;;9.15;6.40;;;26.30;95.00;;;;;;4950388;29;20028;-73
2022/08/28 10:13:01;;;;;;;9.57;6.38;;;26.40;95.20;;;;;;4945955;29;20098;-73
2022/08/28 10:15:36;;;;;;;8.05;6.18;;;26.50;94.40;;;;;;4966524;29;20027;-72
2022/08/28 10:18:21;;;;;;;8.82;5.90;;;26.50;94.80;;;;;;4966383;29;20066;-73
2022/08/28 10:21:05;;;;;;;7.78;6.22;;;26.40;94.50;;;;;;4961586;28;20030;-74
2022/08/28 10:24:05;;;;;;;8.45;6.30;;;26.50;94.30;;;;;;4965204;29;20039;-75
2022/08/28 10:26:45;;;;;;;8.90;6.32;;;26.70;93.80;;;;;;4964764;28;20076;-75
2022/08/28 10:29:24;;;;;;;7.97;5.80;;;26.70;93.60;;;;;;4966166;29;20106;-77
2022/08/28 10:32:13;;;;;;;9.07;6.00;;;26.90;93.80;;;;;;4949081;29;20297;-75
2022/08/28 10:34:55;;;;;;;7.95;5.93;;;26.90;93.30;;;;;;4966272;29;20213;-76
2022/08/28 10:37:37;;;;;;;9.20;5.85;;;27.10;93.20;;;;;;4933726;29;20205;-76
2022/08/28 10:40:33;;;;;;;8.90;5.20;;;27.40;91.90;;;;;;4961222;29;20032;-76
2022/08/28 10:43:28;;;;;;;7.22;5.05;;;27.60;92.00;;;;;;4929637;29;20055;-77
2022/08/28 10:45:54;;;;;;;9.55;4.82;;;27.70;90.60;;;;;;4932832;29;20098;-78
2022/08/28 10:48:32;;;;;;;8.02;4.90;;;27.70;91.20;;;;;;4933317;29;20335;-76
2022/08/28 10:51:06;;;;;;;6.53;4.93;;;28.00;90.00;;;;;;4965214;29;20050;-75
2022/08/28 10:54:01;;;;;;;6.72;4.70;;;28.00;88.90;;;;;;4934435;29;20038;-77
2022/08/28 10:56:37;;;;;;;6.95;4.57;;;28.30;89.20;;;;;;4899629;29;20031;-76
2022/08/28 10:59:12;;;;;;;5.60;4.50;;;28.20;88.40;;;;;;4929820;29;20054;-76
2022/08/28 11:01:41;;;;;;;7.28;4.97;;;28.20;87.70;;;;;;4965588;29;20027;-76
2022/08/28 11:04:14;;;;;;;6.25;4.80;;;28.30;87.70;;;;;;4947810;29;20059;-74
2022/08/28 11:06:57;;;;;;;5.82;4.40;;;28.70;86.30;;;;;;4965720;29;20482;-75
2022/08/28 11:09:46;;;;;;;9.48;5.32;;;28.70;86.70;;;;;;4948352;29;20270;-76
2022/08/28 11:12:42;;;;;;;9.27;4.78;;;29.10;85.80;;;;;;4932410;29;20047;-74
2022/08/28 11:15:45;;;;;;;7.97;5.45;;;29.30;83.90;;;;;;4890603;29;20033;-76
2022/08/28 11:18:14;;;;;;;6.57;4.53;;;29.10;82.80;;;;;;4878209;29;20165;-74
2022/08/28 11:21:08;;;;;;;5.85;4.32;;;29.10;84.10;;;;;;4906066;29;20052;-76
2022/08/28 11:24:00;;;;;;;7.43;4.40;;;29.20;83.80;;;;;;4906403;29;20052;-76
2022/08/28 11:26:32;;;;;;;5.32;4.10;;;29.70;82.80;;;;;;4890393;29;20068;-75
2022/08/28 11:29:01;;;;;;;4.78;3.75;;;30.40;80.30;;;;;;4905672;29;20378;-75
2022/08/28 11:31:31;;;;;;;5.57;3.70;;;31.80;77.20;;;;;;4906105;29;20157;-73
2022/08/28 11:34:01;;;;;;;5.88;4.07;;;32.30;75.00;;;;;;4905377;29;20046;-75
2022/08/28 11:36:47;;;;;;;5.22;3.22;;;33.30;71.60;;;;;;4906100;29;20025;-77
2022/08/28 11:39:12;;;;;;;4.88;3.63;;;33.10;71.50;;;;;;4871177;29;20044;-74
2022/08/28 11:42:07;;;;;;;8.65;3.90;;;33.20;72.10;;;;;;4871886;29;20025;-74
2022/08/28 11:44:45;;;;;;;5.43;3.53;;;33.00;71.00;;;;;;4871475;29;20025;-75
2022/08/28 11:47:36;;;;;;;6.15;3.70;;;31.90;72.00;;;;;;4867187;29;20025;-74
2022/08/28 11:50:11;;;;;;;6.50;4.30;;;31.10;74.50;;;;;;4905400;29;20036;-74
2022/08/28 11:53:15;;;;;;;6.45;4.32;;;31.10;75.10;;;;;;4950493;29;20051;-74
2022/08/28 11:56:03;;;;;;;6.07;3.67;;;31.50;75.40;;;;;;4964811;29;20067;-74
2022/08/28 11:58:33;;;;;;;;;;;32.70;74.00;;;;;;4948207;29;20027;-75
2022/08/28 12:01:09;;;;;;;4.35;3.33;;;33.80;70.90;;;;;;4964422;28;19906;-73
2022/08/28 12:03:52;;;;;;;4.75;2.97;;;35.20;68.00;;;;;;4964514;29;20043;-75
2022/08/28 12:06:44;;;;;;;4.78;3.17;;;36.20;65.90;;;;;;4964615;29;20038;-73
2022/08/28 12:09:43;;;;;;;10.63;3.60;;;36.60;64.00;;;;;;4964269;29;20039;-74
2022/08/28 12:12:20;;;;;;;6.25;3.78;;;37.60;61.60;;;;;;4947193;29;20059;-74
2022/08/28 12:14:46;;;;;;;6.30;3.45;;;37.50;62.70;;;;;;4964449;29;20042;-73
2022/08/28 12:17:27;;;;;;;4.93;3.30;;;37.10;62.40;;;;;;4963680;29;20313;-72
2022/08/28 12:20:28;;;;;;;6.80;3.45;;;36.20;63.00;;;;;;4964157;29;20082;-71
2022/08/28 12:22:57;;;;;;;4.75;3.40;;;34.40;65.30;;;;;;4964543;29;20102;-74
2022/08/28 12:25:38;;;;;;;5.75;3.30;;;33.70;66.70;;;;;;4964183;29;20034;-71
2022/08/28 12:28:17;;;;;;;6.97;3.47;;;35.40;66.00;;;;;;4963934;29;20055;-71
2022/08/28 12:31:09;;;;;;;5.55;3.78;;;35.60;63.90;;;;;;4964221;29;20050;-73
2022/08/28 12:33:53;;;;;;;6.78;4.03;;;35.50;63.50;;;;;;4963452;29;20198;-71
2022/08/28 12:36:25;;;;;;;5.90;3.65;;;34.00;66.30;;;;;;4963517;29;20027;-72
2022/08/28 12:38:53;;;;;;;7.28;3.85;;;35.70;65.00;;;;;;4958462;29;20249;-72
2022/08/28 12:41:23;;;;;;;7.18;3.80;;;37.00;61.50;;;;;;4963347;29;20312;-71
2022/08/28 12:43:54;;;;;;;6.60;3.17;;;37.00;61.40;;;;;;4943536;29;20031;-72
2022/08/28 12:46:36;;;;;;;4.80;3.00;;;37.50;60.80;;;;;;4948966;29;20225;-71
2022/08/28 12:49:04;;;;;;;4.75;3.08;;;38.00;60.80;;;;;;4962456;28;20058;-71
2022/08/28 12:51:35;;;;;;;5.65;3.15;;;38.60;59.50;;;;;;4963735;29;20031;-69
2022/08/28 12:54:05;;;;;;;6.63;2.90;;;38.80;57.20;;;;;;4963150;29;20035;-71
2022/08/28 12:56:34;;;;;;;4.15;2.78;;;39.00;57.60;;;;;;4963561;29;20023;-70
2022/08/28 12:59:31;;;;;;;5.57;3.20;;;39.80;57.00;;;;;;4946366;29;20037;-72
2022/08/28 13:02:01;;;;;;;;;;;40.90;55.00;;;;;;4963068;28;20027;-71
2022/08/28 13:04:37;;;;;;;4.60;2.85;;;41.40;54.50;;;;;;4963412;29;19958;-72
2022/08/28 13:07:12;;;;;;;4.50;3.10;;;41.50;55.90;;;;;;4963422;29;20023;-73
2022/08/28 13:09:46;;;;;;;3.72;2.75;;;42.30;53.20;;;;;;4963522;29;20057;-72
2022/08/28 13:12:23;;;;;;;3.90;2.63;;;43.00;54.60;;;;;;4963293;29;20035;-72
2022/08/28 13:14:51;;;;;;;;;;;42.20;52.50;;;;;;4964995;29;20317;-71
2022/08/28 13:17:45;;;;;;;4.70;2.50;;;40.60;53.70;;;;;;4959492;29;19907;-72
2022/08/28 13:20:33;;;;;;;5.18;2.70;;;38.50;54.90;;;;;;4943682;29;20075;-70
2022/08/28 13:23:00;;;;;;;5.30;3.03;;;36.90;57.20;;;;;;4944603;29;20197;-71
2022/08/28 13:25:30;;;;;;;4.80;2.60;;;37.70;56.50;;;;;;4934180;29;20066;-73
2022/08/28 13:28:11;;;;;;;5.85;2.85;;;39.20;54.50;;;;;;4963934;29;20539;-72
2022/08/28 13:30:37;;;;;;;3.75;2.90;;;39.10;54.00;;;;;;4964084;29;20050;-72
2022/08/28 13:33:22;;;;;;;5.20;3.20;;;37.00;55.90;;;;;;4945476;29;20023;-72
2022/08/28 13:35:49;;;;;;;8.20;3.05;;;35.70;57.40;;;;;;4963870;29;20058;-72
2022/08/28 13:38:17;;;;;;;5.80;3.00;;;34.60;59.10;;;;;;4963608;29;20072;-72
2022/08/28 13:40:52;;;;;;;5.22;3.17;;;33.70;61.10;;;;;;4964134;29;20098;-71
2022/08/28 13:43:23;;;;;;;4.05;3.10;;;33.10;62.90;;;;;;4963376;29;20027;-74
2022/08/28 13:45:50;;;;;;;5.35;3.05;;;34.50;60.80;;;;;;4963734;29;20038;-73
2022/08/28 13:48:22;;;;;;;4.95;2.50;;;36.60;58.00;;;;;;4963446;29;20082;-73
2022/08/28 13:51:09;;;;;;;6.32;3.20;;;37.30;57.20;;;;;;4963615;29;20190;-73
2022/08/28 13:53:35;;;;;;;3.83;2.60;;;38.40;55.00;;;;;;4963293;29;20220;-71
2022/08/28 13:56:01;;;;;;;4.93;2.50;;;39.30;54.20;;;;;;4963468;29;20031;-70
2022/08/28 13:58:27;;;;;;;5.28;2.70;;;40.00;54.10;;;;;;4963906;29;20065;-71
2022/08/28 14:00:53;;;;;;;4.13;2.67;;;40.00;52.20;;;;;;4962485;29;20165;-70
2022/08/28 14:03:35;;;;;;;7.97;3.33;;;38.50;53.70;;;;;;4962827;29;20052;-71
2022/08/28 14:06:21;;;;;;;4.40;2.67;;;37.70;55.30;;;;;;4963409;29;20119;-73
2022/08/28 14:08:50;;;;;;;4.85;2.88;;;36.40;56.00;;;;;;4963471;29;20393;-71
2022/08/28 14:11:44;;;;;;;4.25;2.80;;;35.70;61.20;;;;;;4963281;29;20441;-71
2022/08/28 14:14:10;;;;;;;4.82;2.92;;;36.00;60.30;;;;;;4963139;29;20035;-72
2022/08/28 14:16:37;;;;;;;4.28;2.65;;;37.70;57.80;;;;;;4963500;29;20037;-70
2022/08/28 14:19:06;;;;;;;5.43;2.40;;;39.50;53.90;;;;;;4963389;29;20031;-71
2022/08/28 14:21:38;;;;;;;4.35;2.50;;;40.50;53.10;;;;;;4963377;29;20097;-71
2022/08/28 14:24:07;;;;;;;5.53;2.70;;;41.20;51.80;;;;;;4963238;29;20309;-72
2022/08/28 14:26:33;;;;;;;4.25;2.70;;;41.70;51.30;;;;;;4963496;29;20031;-70
2022/08/28 14:29:11;;;;;;;3.78;2.38;;;40.50;51.50;;;;;;4963369;29;20035;-71
2022/08/28 14:31:40;;;;;;;4.95;2.50;;;40.60;51.10;;;;;;4963218;29;20147;-71
2022/08/28 14:34:17;;;;;;;4.28;2.72;;;40.90;51.60;;;;;;4963001;29;20019;-71
2022/08/28 14:36:43;;;;;;;3.85;2.53;;;40.80;51.60;;;;;;4963488;29;20031;-71
2022/08/28 14:39:16;;;;;;;5.65;2.70;;;40.50;51.40;;;;;;4929836;29;20062;-70
2022/08/28 14:41:45;;;;;;;5.25;2.70;;;39.20;52.20;;;;;;4963368;29;20317;-71
2022/08/28 14:44:15;;;;;;;4.30;2.88;;;39.50;52.50;;;;;;4945820;29;20035;-71
2022/08/28 14:46:52;;;;;;;4.75;2.50;;;39.70;53.40;;;;;;4963255;29;20042;-71
2022/08/28 14:49:30;;;;;;;4.18;2.38;;;41.80;50.90;;;;;;4963079;29;20042;-71
2022/08/28 14:51:56;;;;;;;4.60;2.38;;;41.80;51.90;;;;;;4951748;29;20038;-72
2022/08/28 14:54:26;;;;;;;3.75;2.00;;;43.50;48.80;;;;;;4926768;29;20051;-71
2022/08/28 14:56:55;;;;;;;4.88;2.70;;;43.80;48.90;;;;;;4943607;29;20052;-71
2022/08/28 14:59:28;;;;;;;4.90;2.55;;;44.90;47.50;;;;;;4943336;29;20031;-72
2022/08/28 15:02:00;;;;;;;3.42;1.95;;;44.90;46.90;;;;;;4943489;29;20135;-71
2022/08/28 15:04:36;;;;;;;6.10;2.85;;;45.30;47.00;;;;;;4943803;29;20147;-72
2022/08/28 15:07:28;;;;;;;3.80;2.13;;;45.70;46.70;;;;;;4942696;29;20094;-71
2022/08/28 15:09:54;;;;;;;3.92;2.00;;;46.00;46.00;;;;;;4950815;29;20046;-72
2022/08/28 15:12:23;;;;;;;4.90;2.10;;;45.50;46.20;;;;;;4945437;29;20027;-72
2022/08/28 15:14:49;;;;;;;5.55;2.17;;;45.00;46.60;;;;;;4966070;29;20047;-72
2022/08/28 15:17:17;;;;;;;3.80;2.28;;;45.10;46.80;;;;;;4966173;29;20310;-72
2022/08/28 15:19:43;;;;;;;2.88;2.30;;;45.30;47.40;;;;;;4965526;29;20031;-72
2022/08/28 15:22:14;;;;;;;3.15;2.38;;;44.50;47.30;;;;;;4966746;29;20038;-72
2022/08/28 15:24:50;;;;;;;3.33;2.30;;;44.00;47.00;;;;;;4970792;29;20038;-71
2022/08/28 15:27:18;;;;;;;4.40;2.35;;;43.80;46.90;;;;;;4971453;29;20027;-73
2022/08/28 15:29:46;;;;;;;;;;;41.90;49.00;;;;;;4967865;29;20055;-70
2022/08/28 15:35:20;;;;;;;5.03;2.45;;;38.70;51.70;;;;;;4965339;29;20031;-73
2022/08/28 15:37:50;;;;;;;4.70;2.40;;;37.10;53.30;;;;;;4965989;29;20042;-72
2022/08/28 15:43:05;;;;;;;5.78;3.00;;;35.30;55.80;;;;;;4966314;29;20030;-73
2022/08/28 15:45:38;;;;;;;3.92;2.85;;;34.90;56.60;;;;;;4946514;29;20325;-72
2022/08/28 15:48:08;;;;;;;6.05;2.60;;;36.70;55.20;;;;;;4949142;29;20059;-73
2022/08/28 15:50:34;;;;;;;4.82;2.60;;;37.00;56.40;;;;;;4966027;29;20027;-73
2022/08/28 15:53:09;;;;;;;5.25;3.25;;;39.90;51.70;;;;;;4965568;29;20035;-72
2022/08/28 15:55:35;;;;;;;4.70;2.50;;;40.10;52.10;;;;;;4965890;29;20042;-72
2022/08/28 15:58:07;;;;;;;4.03;2.85;;;40.40;51.10;;;;;;4965602;29;20119;-71
2022/08/28 16:00:51;;;;;;;4.93;2.38;;;39.70;51.60;;;;;;4965668;28;20023;-71
2022/08/28 16:03:20;;;;;;;6.68;2.50;;;39.20;52.40;;;;;;4964758;29;20047;-71
2022/08/28 16:05:56;;;;;;;3.88;2.42;;;38.80;51.20;;;;;;4933194;29;20027;-71
2022/08/28 16:08:40;;;;;;;3.72;2.45;;;38.20;52.00;;;;;;4965290;29;20074;-73
2022/08/28 16:11:10;;;;;;;3.88;2.60;;;37.50;52.00;;;;;;4965568;29;20031;-73
2022/08/28 16:13:39;;;;;;;5.25;2.30;;;36.80;52.70;;;;;;4965609;29;20082;-73
2022/08/28 16:16:12;;;;;;;4.18;2.55;;;36.80;54.10;;;;;;4948191;29;20046;-73
2022/08/28 16:18:41;;;;;;;4.18;2.70;;;37.30;53.20;;;;;;4965785;29;20069;-74
2022/08/28 16:21:07;;;;;;;6.63;3.17;;;37.80;52.40;;;;;;4965189;29;20031;-72
2022/08/28 16:23:42;;;;;;;3.95;2.65;;;37.90;51.90;;;;;;4947928;29;20035;-72
2022/08/28 16:26:23;;;;;;;4.15;2.42;;;37.80;52.00;;;;;;4965164;29;20094;-72
2022/08/28 16:29:04;;;;;;;4.55;2.50;;;37.40;52.50;;;;;;4965461;29;20031;-72
2022/08/28 16:31:33;;;;;;;5.72;3.03;;;36.70;53.80;;;;;;4964771;29;20035;-72
2022/08/28 16:34:04;;;;;;;5.05;2.90;;;36.30;53.60;;;;;;4965154;29;20031;-72
2022/08/28 16:36:32;;;;;;;5.97;3.17;;;36.00;53.90;;;;;;4947811;29;20043;-72
2022/08/28 16:39:16;;;;;;;4.00;2.45;;;36.40;53.50;;;;;;4965068;29;20034;-71
2022/08/28 16:41:48;;;;;;;5.15;2.80;;;36.80;53.20;;;;;;4947040;29;20039;-72
2022/08/28 16:44:21;;;;;;;6.45;2.92;;;37.40;53.40;;;;;;4947421;29;20047;-72
2022/08/28 16:46:48;;;;;;;5.72;2.70;;;38.00;52.10;;;;;;4964561;29;20038;-73
2022/08/28 16:49:17;;;;;;;3.78;2.65;;;37.90;51.80;;;;;;4964419;29;20062;-71
2022/08/28 16:51:52;;;;;;;4.50;3.00;;;38.00;51.40;;;;;;4964530;29;20038;-71
2022/08/28 16:54:24;;;;;;;3.75;2.38;;;37.90;51.60;;;;;;4946107;29;20110;-72
2022/08/28 16:56:49;;;;;;;3.88;2.72;;;37.50;51.70;;;;;;4964642;29;20077;-73
2022/08/28 16:59:19;;;;;;;4.95;2.60;;;36.90;52.30;;;;;;4964320;29;20035;-72
2022/08/28 17:01:47;;;;;;;3.90;2.95;;;36.30;53.20;;;;;;4965027;28;20106;-73
2022/08/28 17:04:21;;;;;;;4.82;3.83;;;36.00;53.60;;;;;;4962533;29;20110;-73
2022/08/28 17:06:58;;;;;;;5.75;3.00;;;35.20;54.90;;;;;;4964812;29;20094;-72
2022/08/28 17:09:24;;;;;;;4.90;3.33;;;34.50;55.90;;;;;;4964372;29;20031;-72
2022/08/28 17:11:53;;;;;;;4.78;3.40;;;33.70;56.50;;;;;;4964297;29;20031;-72
2022/08/28 17:14:26;;;;;;;4.07;2.80;;;32.90;57.90;;;;;;4947130;29;20226;-72
2022/08/28 17:16:54;;;;;;;4.65;2.90;;;32.40;58.70;;;;;;4947937;29;20027;-72
2022/08/28 17:19:22;;;;;;;3.88;2.40;;;31.80;60.40;;;;;;4928585;29;20106;-72
2022/08/28 17:24:36;;;;;;;5.97;3.10;;;30.40;62.10;;;;;;4946670;29;20221;-72
2022/08/28 17:27:02;;;;;;;4.43;2.90;;;29.90;62.70;;;;;;4963946;29;20030;-72
2022/08/28 17:29:28;;;;;;;4.72;3.03;;;29.50;64.00;;;;;;4963585;29;20042;-72
2022/08/28 17:31:55;;;;;;;4.47;3.30;;;29.10;65.30;;;;;;4947040;29;20273;-72
2022/08/28 17:34:21;;;;;;;3.53;2.53;;;28.90;65.40;;;;;;4946639;29;20031;-72
2022/08/28 17:36:47;;;;;;;5.18;3.13;;;28.60;66.40;;;;;;4947158;29;20317;-72
2022/08/28 17:39:16;;;;;;;4.32;2.80;;;28.40;66.40;;;;;;4931011;29;20027;-72
2022/08/28 17:41:43;;;;;;;5.38;3.40;;;28.30;66.80;;;;;;4946178;29;20093;-76
2022/08/28 17:44:09;;;;;;;4.03;3.10;;;28.20;67.60;;;;;;4964027;29;20031;-75
2022/08/28 17:46:35;;;;;;;8.63;3.25;;;28.20;67.90;;;;;;4946535;29;20030;-77
2022/08/28 17:49:01;;;;;;;6.53;3.42;;;28.00;68.50;;;;;;4963963;29;20082;-71
2022/08/28 17:51:27;;;;;;;6.25;3.30;;;27.90;68.20;;;;;;4963593;29;20090;-76
2022/08/28 17:53:53;;;;;;;5.40;2.95;;;27.70;68.90;;;;;;4963918;29;20046;-74
2022/08/28 17:56:19;;;;;;;6.90;3.33;;;27.50;68.20;;;;;;4963420;29;20030;-75
2022/08/28 17:58:45;;;;;;;5.03;3.40;;;27.20;68.70;;;;;;4963892;29;20039;-75
2022/08/28 18:01:16;;;;;;;6.30;3.70;;;27.00;70.00;;;;;;4964138;28;20229;-73
2022/08/28 18:03:42;;;;;;;7.93;4.90;;;26.80;70.30;;;;;;4964049;29;20082;-73
2022/08/28 18:06:08;;;;;;;8.27;4.93;;;26.60;71.20;;;;;;4963939;29;20182;-75
2022/08/28 18:08:34;;;;;;;6.60;4.03;;;26.40;72.30;;;;;;4963171;29;20289;-75
2022/08/28 18:11:00;;;;;;;10.88;5.22;;;26.20;72.50;;;;;;4946785;29;20074;-76
2022/08/28 18:13:26;;;;;;;6.07;4.15;;;26.10;72.70;;;;;;4930250;29;20027;-76
2022/08/28 18:15:55;;;;;;;6.85;4.53;;;25.90;73.30;;;;;;4946418;29;20066;-75
2022/08/28 18:18:21;;;;;;;7.00;4.15;;;25.70;73.70;;;;;;4946228;29;20139;-76
2022/08/28 18:20:46;;;;;;;7.10;3.95;;;25.60;75.60;;;;;;4963476;29;20030;-73
2022/08/28 18:23:13;;;;;;;5.97;3.78;;;25.50;74.60;;;;;;4963607;29;20221;-74
2022/08/28 18:25:43;;;;;;;6.50;4.68;;;25.30;75.50;;;;;;4963067;29;20343;-75
2022/08/28 18:28:13;;;;;;;10.80;5.68;;;25.20;76.40;;;;;;4963700;29;20066;-76
2022/08/28 18:30:40;;;;;;;5.28;3.85;;;25.10;76.50;;;;;;4944007;29;20082;-75
2022/08/28 18:33:06;;;;;;;6.25;4.03;;;25.00;76.50;;;;;;4944198;29;20030;-75
2022/08/28 18:35:33;;;;;;;7.38;4.07;;;24.80;77.30;;;;;;4963009;29;20042;-75
2022/08/28 18:38:00;;;;;;;5.80;3.80;;;24.70;77.80;;;;;;4943197;29;20035;-77
2022/08/28 18:40:26;;;;;;;5.85;3.65;;;24.50;77.40;;;;;;4943243;29;20035;-76
2022/08/28 18:42:53;;;;;;;6.88;4.10;;;24.40;78.80;;;;;;4927977;29;20054;-77
2022/08/28 18:45:19;;;;;;;5.15;3.70;;;24.30;78.80;;;;;;4943763;29;20036;-76